Wetterdaten: Woche 21.10.02 - 27.10.02 (KW43)
Datum Zeit Temperatur Luftfeuchte Luftdruck Regenmenge Wind Richtung Taupunkt Windchill
21.10.2002 00:00 3.3 C 98 % 1011.8 hPa 0.0 l/m 1.0 km/h (0 Bft) O-SO 3.0 C 3.2 C
21.10.2002 01:00 3.3 C 98 % 1011.0 hPa 0.0 l/m 0.0 km/h (0 Bft) N 3.0 C 3.3 C
21.10.2002 02:00 3.4 C 99 % 1010.8 hPa 0.0 l/m 0.3 km/h (0 Bft) O-SO 3.2 C 3.4 C
21.10.2002 03:00 3.1 C 99 % 1010.8 hPa 0.0 l/m 2.2 km/h (1 Bft) O-SO 2.9 C 2.7 C
21.10.2002 04:00 2.8 C 99 % 1009.7 hPa 0.0 l/m 0.0 km/h (0 Bft) N 2.7 C 2.8 C
21.10.2002 05:00 3.5 C 100 % 1009.7 hPa 0.0 l/m 0.0 km/h (0 Bft) N 3.4 C 3.5 C
21.10.2002 06:00 3.7 C 100 % 1009.3 hPa 0.0 l/m 0.0 km/h (0 Bft) N 3.7 C 3.7 C
21.10.2002 07:00 3.7 C 100 % 1008.7 hPa 0.0 l/m 0.0 km/h (0 Bft) N 3.7 C 3.7 C
21.10.2002 08:00 4.0 C 99 % 1008.7 hPa 0.0 l/m 0.0 km/h (0 Bft) N 3.8 C 4.0 C
21.10.2002 09:00 4.6 C 98 % 1008.3 hPa 0.0 l/m 0.7 km/h (0 Bft) NW 4.3 C 4.6 C
21.10.2002 10:00 5.4 C 95 % 1007.7 hPa 0.3 l/m 0.2 km/h (0 Bft) N 4.6 C 5.4 C
21.10.2002 11:00 6.0 C 96 % 1008.7 hPa 1.8 l/m 0.8 km/h (0 Bft) O-SO 5.4 C 6.0 C
21.10.2002 12:00 6.9 C 97 % 1008.7 hPa 3.0 l/m 0.5 km/h (0 Bft) O-SO 6.4 C 6.8 C
21.10.2002 13:00 8.5 C 99 % 1007.9 hPa 1.2 l/m 4.3 km/h (1 Bft) SO 8.3 C 8.0 C
21.10.2002 14:00 10.3 C 97 % 1007.7 hPa 0.0 l/m 3.6 km/h (1 Bft) O-SO 9.8 C 10.2 C
21.10.2002 15:00 11.3 C 92 % 1006.9 hPa 0.0 l/m 9.4 km/h (2 Bft) SO 10.0 C 11.3 C
21.10.2002 16:00 11.5 C 90 % 1006.6 hPa 0.0 l/m 11.2 km/h (2 Bft) SO 9.9 C 11.5 C
21.10.2002 17:00 11.5 C 90 % 1005.9 hPa 0.0 l/m 7.9 km/h (2 Bft) SO 9.9 C 11.5 C
21.10.2002 18:00 11.2 C 90 % 1005.6 hPa 0.0 l/m 2.3 km/h (1 Bft) SO 9.6 C 11.2 C
21.10.2002 19:00 10.8 C 94 % 1005.2 hPa 0.3 l/m 1.7 km/h (1 Bft) SO 9.8 C 10.8 C
21.10.2002 20:00 10.2 C 98 % 1004.3 hPa 0.6 l/m 0.4 km/h (0 Bft) SO 9.9 C 10.2 C
21.10.2002 21:00 9.8 C 100 % 1003.0 hPa 0.0 l/m 0.4 km/h (0 Bft) SO 9.8 C 9.8 C
21.10.2002 22:00 9.5 C 100 % 1002.1 hPa 0.0 l/m 0.0 km/h (0 Bft) N 9.5 C 9.5 C
21.10.2002 23:00 9.4 C 100 % 1001.4 hPa 0.0 l/m 0.2 km/h (0 Bft) SO 9.4 C 9.4 C
22.10.2002 00:00 9.5 C 100 % 1002.4 hPa 1.2 l/m 2.5 km/h (1 Bft) O-SO 9.5 C 9.2 C
22.10.2002 01:00 9.6 C 100 % 1002.3 hPa 2.7 l/m 0.4 km/h (0 Bft) O-SO 9.6 C 9.5 C
22.10.2002 02:00 9.9 C 100 % 1002.4 hPa 2.4 l/m 5.2 km/h (1 Bft) SO 9.9 C 9.5 C
22.10.2002 03:00 10.3 C 100 % 1002.9 hPa 1.5 l/m 4.0 km/h (1 Bft) SO 10.3 C 10.3 C
22.10.2002 04:00 10.1 C 100 % 1002.5 hPa 0.3 l/m 6.2 km/h (2 Bft) SO 10.1 C 9.8 C
22.10.2002 05:00 10.1 C 100 % 1001.4 hPa 0.3 l/m 5.5 km/h (1 Bft) O-SO 10.1 C 10.1 C
22.10.2002 06:00 10.1 C 100 % 1001.4 hPa 0.0 l/m 6.7 km/h (2 Bft) SO 10.1 C 10.1 C
22.10.2002 07:00 10.0 C 100 % 1000.8 hPa 0.3 l/m 4.6 km/h (1 Bft) O-SO 10.0 C 10.0 C
22.10.2002 08:00 9.6 C 100 % 1001.3 hPa 0.0 l/m 3.3 km/h (1 Bft) O-SO 9.6 C 9.3 C
22.10.2002 09:00 10.2 C 100 % 1001.4 hPa 0.0 l/m 2.3 km/h (1 Bft) SO 10.2 C 10.0 C
22.10.2002 10:00 11.1 C 100 % 1001.4 hPa 0.0 l/m 6.8 km/h (2 Bft) SO 11.0 C 11.1 C
22.10.2002 11:00 12.4 C 88 % 1001.4 hPa 0.0 l/m 6.9 km/h (2 Bft) SO 10.4 C 12.4 C
22.10.2002 12:00 13.1 C 82 % 1001.4 hPa 0.0 l/m 3.7 km/h (1 Bft) SO 10.0 C 13.1 C
22.10.2002 13:00 15.0 C 71 % 1000.4 hPa 0.0 l/m 2.0 km/h (1 Bft) O-SO 9.8 C 15.0 C
22.10.2002 14:00 15.6 C 61 % 999.4 hPa 0.0 l/m 6.1 km/h (2 Bft) W 8.1 C 15.6 C
22.10.2002 15:00 16.8 C 52 % 999.4 hPa 0.0 l/m 6.5 km/h (2 Bft) W 6.8 C 16.8 C
22.10.2002 16:00 17.0 C 48 % 999.4 hPa 0.0 l/m 12.1 km/h (2 Bft) W-NW 6.0 C 17.0 C
22.10.2002 17:00 16.5 C 48 % 999.4 hPa 0.0 l/m 20.0 km/h (4 Bft) W-NW 5.6 C 16.5 C
22.10.2002 18:00 15.7 C 52 % 999.4 hPa 0.0 l/m 13.2 km/h (3 Bft) W 5.9 C 15.7 C
22.10.2002 19:00 14.7 C 58 % 999.4 hPa 0.0 l/m 9.7 km/h (2 Bft) S 6.4 C 14.7 C
22.10.2002 20:00 13.5 C 67 % 999.3 hPa 0.0 l/m 8.5 km/h (2 Bft) O-SO 7.5 C 13.5 C
22.10.2002 21:00 13.3 C 69 % 999.0 hPa 0.0 l/m 14.3 km/h (3 Bft) O-SO 7.7 C 13.3 C
22.10.2002 22:00 13.7 C 67 % 999.1 hPa 0.0 l/m 15.8 km/h (3 Bft) O-SO 7.6 C 13.7 C
22.10.2002 23:00 14.0 C 66 % 998.8 hPa 0.0 l/m 18.4 km/h (3 Bft) SO 7.7 C 14.0 C
23.10.2002 00:00 14.2 C 62 % 999.0 hPa 0.0 l/m 28.4 km/h (4 Bft) SW 6.9 C 14.2 C
23.10.2002 01:00 13.7 C 64 % 999.4 hPa 0.0 l/m 21.1 km/h (4 Bft) SO 7.0 C 13.7 C
23.10.2002 02:00 13.4 C 68 % 999.4 hPa 0.0 l/m 14.1 km/h (3 Bft) S-SO 7.6 C 13.4 C
23.10.2002 03:00 14.0 C 63 % 999.5 hPa 0.0 l/m 18.5 km/h (3 Bft) W 7.0 C 14.0 C
23.10.2002 04:00 13.4 C 71 % 1000.4 hPa 0.0 l/m 21.2 km/h (4 Bft) W-NW 8.3 C 13.4 C
23.10.2002 05:00 14.0 C 65 % 1000.4 hPa 0.3 l/m 27.0 km/h (4 Bft) W 7.6 C 14.0 C
23.10.2002 06:00 14.9 C 57 % 1000.4 hPa 0.0 l/m 28.6 km/h (4 Bft) W-NW 6.5 C 14.9 C
23.10.2002 07:00 14.8 C 55 % 1000.4 hPa 0.0 l/m 17.2 km/h (3 Bft) W-NW 5.9 C 14.8 C
23.10.2002 08:00 14.2 C 60 % 1000.9 hPa 0.0 l/m 15.5 km/h (3 Bft) W-NW 6.4 C 14.2 C
23.10.2002 09:00 13.3 C 66 % 1001.4 hPa 0.0 l/m 3.2 km/h (1 Bft) W-NW 7.0 C 13.3 C
23.10.2002 10:00 13.6 C 67 % 1001.7 hPa 0.0 l/m 15.1 km/h (3 Bft) NW 7.5 C 13.6 C
23.10.2002 11:00 12.0 C 83 % 1002.5 hPa 0.6 l/m 12.2 km/h (2 Bft) NW 9.2 C 12.0 C
23.10.2002 12:00 11.2 C 88 % 1003.5 hPa 2.7 l/m 23.1 km/h (4 Bft) NW 9.3 C 11.2 C
23.10.2002 13:00 10.7 C 88 % 1004.2 hPa 0.9 l/m 16.6 km/h (3 Bft) NW 8.9 C 10.7 C
23.10.2002 14:00 10.2 C 85 % 1005.3 hPa 0.6 l/m 36.3 km/h (5 Bft) NW 7.8 C 9.2 C
23.10.2002 15:00 10.3 C 73 % 1006.1 hPa 0.0 l/m 37.7 km/h (5 Bft) NW 5.6 C 9.0 C
23.10.2002 16:00 11.1 C 66 % 1007.2 hPa 0.0 l/m 27.5 km/h (4 Bft) NW 5.0 C 11.1 C
23.10.2002 17:00 9.3 C 79 % 1008.4 hPa 0.6 l/m 26.8 km/h (4 Bft) NW 5.9 C 6.6 C
23.10.2002 18:00 8.2 C 87 % 1009.1 hPa 1.8 l/m 22.8 km/h (4 Bft) NW 6.3 C 5.1 C
23.10.2002 19:00 8.0 C 89 % 1010.4 hPa 0.9 l/m 28.3 km/h (4 Bft) NW 6.3 C 4.3 C
23.10.2002 20:00 6.9 C 89 % 1011.8 hPa 2.1 l/m 19.4 km/h (3 Bft) W-NW 5.1 C 3.9 C
23.10.2002 21:00 6.8 C 92 % 1012.3 hPa 0.0 l/m 6.3 km/h (2 Bft) NW 5.6 C 5.9 C
23.10.2002 22:00 7.0 C 92 % 1013.1 hPa 0.0 l/m 2.9 km/h (1 Bft) NW 5.8 C 6.6 C
23.10.2002 23:00 6.2 C 93 % 1013.7 hPa 0.0 l/m 0.8 km/h (0 Bft) W-NW 5.1 C 6.1 C
24.10.2002 00:00 5.3 C 94 % 1013.9 hPa 0.0 l/m 3.4 km/h (1 Bft) NW 4.5 C 4.8 C
24.10.2002 01:00 4.4 C 93 % 1014.8 hPa 0.0 l/m 3.1 km/h (1 Bft) SO 3.3 C 3.8 C
24.10.2002 02:00 4.7 C 94 % 1014.9 hPa 0.0 l/m 1.9 km/h (1 Bft) SO 3.8 C 4.4 C
24.10.2002 03:00 5.1 C 96 % 1014.9 hPa 0.0 l/m 5.1 km/h (1 Bft) O-SO 4.4 C 3.9 C
24.10.2002 04:00 4.1 C 96 % 1014.9 hPa 0.0 l/m 3.1 km/h (1 Bft) SO 3.6 C 3.5 C
24.10.2002 05:00 3.2 C 97 % 1014.9 hPa 0.0 l/m 3.1 km/h (1 Bft) SO 2.8 C 2.6 C
24.10.2002 06:00 3.7 C 97 % 1014.9 hPa 0.0 l/m 3.0 km/h (1 Bft) SO 3.3 C 3.1 C
24.10.2002 07:00 3.9 C 98 % 1015.0 hPa 0.0 l/m 1.5 km/h (1 Bft) SO 3.7 C 3.8 C
24.10.2002 08:00 4.3 C 98 % 1015.9 hPa 0.0 l/m 0.6 km/h (0 Bft) SO 4.0 C 4.1 C
24.10.2002 09:00 5.2 C 96 % 1015.9 hPa 0.0 l/m 2.2 km/h (1 Bft) SO 4.6 C 4.9 C
24.10.2002 10:00 7.1 C 84 % 1015.9 hPa 0.0 l/m 5.8 km/h (2 Bft) O-SO 4.5 C 6.1 C
24.10.2002 11:00 8.4 C 69 % 1015.9 hPa 0.0 l/m 10.5 km/h (2 Bft) NW 3.0 C 6.8 C
24.10.2002 12:00 9.5 C 64 % 1015.8 hPa 0.0 l/m 6.7 km/h (2 Bft) NW 2.9 C 8.7 C
24.10.2002 13:00 10.4 C 57 % 1014.9 hPa 0.0 l/m 3.7 km/h (1 Bft) NW 2.2 C 10.4 C
24.10.2002 14:00 10.9 C 53 % 1014.8 hPa 0.0 l/m 2.7 km/h (1 Bft) NW 1.6 C 10.9 C
24.10.2002 15:00 10.8 C 53 % 1013.9 hPa 0.0 l/m 0.0 km/h (0 Bft) N 1.7 C 10.8 C
24.10.2002 16:00 10.3 C 59 % 1013.9 hPa 0.0 l/m 0.0 km/h (0 Bft) N 2.6 C 10.3 C
24.10.2002 17:00 9.3 C 65 % 1012.9 hPa 0.0 l/m 0.0 km/h (0 Bft) N 3.1 C 9.3 C
24.10.2002 18:00 8.8 C 68 % 1012.8 hPa 0.0 l/m 0.8 km/h (0 Bft) NO 3.3 C 8.8 C
24.10.2002 19:00 8.4 C 74 % 1012.8 hPa 0.0 l/m 1.7 km/h (1 Bft) O 4.1 C 8.2 C
24.10.2002 20:00 7.9 C 85 % 1013.4 hPa 0.9 l/m 0.3 km/h (0 Bft) N 5.4 C 7.9 C
24.10.2002 21:00 7.0 C 95 % 1013.9 hPa 0.9 l/m 0.3 km/h (0 Bft) O 6.3 C 7.0 C
24.10.2002 22:00 6.7 C 99 % 1013.9 hPa 1.8 l/m 3.8 km/h (1 Bft) O 6.6 C 6.5 C
24.10.2002 23:00 6.7 C 100 % 1013.4 hPa 1.8 l/m 3.0 km/h (1 Bft) O-SO 6.6 C 6.3 C
25.10.2002 00:00 6.6 C 100 % 1012.8 hPa 0.9 l/m 0.0 km/h (0 Bft) N 6.6 C 6.6 C
25.10.2002 01:00 6.6 C 100 % 1012.8 hPa 0.9 l/m 0.0 km/h (0 Bft) N 6.6 C 6.6 C
25.10.2002 02:00 6.8 C 100 % 1012.2 hPa 0.3 l/m 0.0 km/h (0 Bft) N 6.8 C 6.8 C
25.10.2002 03:00 6.9 C 100 % 1011.8 hPa 0.9 l/m 0.1 km/h (0 Bft) N 6.9 C 6.9 C
25.10.2002 04:00 7.0 C 100 % 1011.8 hPa 1.2 l/m 0.0 km/h (0 Bft) N 7.0 C 7.0 C
25.10.2002 05:00 7.7 C 100 % 1011.8 hPa 0.3 l/m 0.6 km/h (0 Bft) SO 7.7 C 7.6 C
25.10.2002 06:00 8.4 C 100 % 1010.9 hPa 0.0 l/m 2.9 km/h (1 Bft) O-SO 8.4 C 8.0 C
25.10.2002 07:00 8.7 C 100 % 1010.8 hPa 0.3 l/m 5.1 km/h (1 Bft) SO 8.7 C 8.0 C
25.10.2002 08:00 9.0 C 98 % 1010.8 hPa 0.0 l/m 7.9 km/h (2 Bft) SO 8.7 C 7.9 C
25.10.2002 09:00 9.5 C 95 % 1010.8 hPa 0.0 l/m 5.4 km/h (1 Bft) SO 8.7 C 8.8 C
25.10.2002 10:00 10.6 C 90 % 1010.7 hPa 0.0 l/m 0.8 km/h (0 Bft) SO 9.1 C 10.6 C
25.10.2002 11:00 11.2 C 87 % 1009.7 hPa 0.0 l/m 9.0 km/h (2 Bft) SO 9.1 C 11.2 C
25.10.2002 12:00 12.1 C 80 % 1009.5 hPa 0.0 l/m 20.2 km/h (4 Bft) SO 8.7 C 12.1 C
25.10.2002 13:00 12.2 C 78 % 1008.8 hPa 0.0 l/m 23.2 km/h (4 Bft) SO 8.6 C 12.2 C
25.10.2002 14:00 12.4 C 78 % 1007.7 hPa 0.0 l/m 18.2 km/h (3 Bft) O-SO 8.6 C 12.4 C
25.10.2002 15:00 12.3 C 82 % 1006.6 hPa 0.9 l/m 11.0 km/h (2 Bft) SO 9.3 C 12.3 C
25.10.2002 16:00 11.9 C 89 % 1006.4 hPa 3.0 l/m 9.6 km/h (2 Bft) SO 10.2 C 11.9 C
25.10.2002 17:00 11.8 C 91 % 1005.6 hPa 2.7 l/m 15.1 km/h (3 Bft) SO 10.4 C 11.8 C
25.10.2002 18:00 12.2 C 90 % 1005.6 hPa 2.7 l/m 21.6 km/h (4 Bft) O-NO 10.6 C 12.2 C
25.10.2002 19:00 12.6 C 92 % 1005.7 hPa 3.0 l/m 18.4 km/h (3 Bft) NW 11.4 C 12.6 C
25.10.2002 20:00 12.9 C 92 % 1006.6 hPa 1.2 l/m 16.4 km/h (3 Bft) NW 11.6 C 12.9 C
25.10.2002 21:00 13.1 C 87 % 1007.1 hPa 3.3 l/m 9.3 km/h (2 Bft) SW 11.1 C 13.1 C
25.10.2002 22:00 12.6 C 93 % 1008.6 hPa 0.3 l/m 6.3 km/h (2 Bft) W-NW 11.6 C 12.6 C
25.10.2002 23:00 12.9 C 89 % 1009.5 hPa 0.0 l/m 8.9 km/h (2 Bft) S 11.2 C 12.9 C
26.10.2002 00:00 13.2 C 86 % 1010.3 hPa 0.0 l/m 13.2 km/h (3 Bft) S 10.9 C 13.2 C
26.10.2002 01:00 14.0 C 79 % 1010.8 hPa 0.0 l/m 15.4 km/h (3 Bft) W 10.4 C 14.0 C
26.10.2002 02:00 15.1 C 66 % 1010.9 hPa 0.0 l/m 33.1 km/h (5 Bft) W-NW 8.6 C 15.1 C
26.10.2002 03:00 15.0 C 59 % 1011.3 hPa 0.0 l/m 39.4 km/h (6 Bft) W-NW 6.9 C 15.0 C
26.10.2002 04:00 14.8 C 56 % 1012.0 hPa 0.0 l/m 32.8 km/h (5 Bft) W-NW 6.1 C 14.8 C
26.10.2002 05:00 14.3 C 56 % 1012.9 hPa 0.0 l/m 35.5 km/h (5 Bft) NW 5.6 C 14.3 C
26.10.2002 06:00 13.9 C 56 % 1014.0 hPa 0.0 l/m 36.1 km/h (5 Bft) NW 5.2 C 13.9 C
26.10.2002 07:00 13.3 C 57 % 1015.1 hPa 0.0 l/m 33.7 km/h (5 Bft) NW 4.9 C 13.3 C
26.10.2002 08:00 13.1 C 55 % 1016.4 hPa 0.0 l/m 36.7 km/h (5 Bft) NW 4.2 C 13.1 C
26.10.2002 09:00 13.2 C 48 % 1017.7 hPa 0.0 l/m 32.1 km/h (5 Bft) W-NW 2.4 C 13.2 C
26.10.2002 10:00 13.5 C 45 % 1018.8 hPa 0.0 l/m 44.9 km/h (6 Bft) NW 1.8 C 13.5 C
26.10.2002 11:00 14.1 C 42 % 1020.0 hPa 0.0 l/m 42.3 km/h (6 Bft) NW 1.4 C 14.1 C
26.10.2002 12:00 13.8 C 44 % 1020.1 hPa 0.0 l/m 32.8 km/h (5 Bft) NW 1.8 C 13.8 C
26.10.2002 13:00 14.9 C 39 % 1020.1 hPa 0.0 l/m 40.2 km/h (6 Bft) NW 1.2 C 14.9 C
26.10.2002 14:00 15.2 C 36 % 1020.1 hPa 0.0 l/m 44.3 km/h (6 Bft) NW 0.4 C 15.2 C
26.10.2002 15:00 15.7 C 38 % 1020.2 hPa 0.0 l/m 39.4 km/h (6 Bft) NW 1.2 C 15.7 C
26.10.2002 16:00 15.6 C 40 % 1021.1 hPa 0.0 l/m 32.4 km/h (5 Bft) NW 2.1 C 15.6 C
26.10.2002 17:00 14.5 C 45 % 1021.2 hPa 0.0 l/m 30.8 km/h (5 Bft) NW 2.8 C 14.5 C
26.10.2002 18:00 13.3 C 50 % 1022.2 hPa 0.0 l/m 25.5 km/h (4 Bft) NW 3.2 C 13.3 C
26.10.2002 19:00 11.7 C 58 % 1022.9 hPa 0.0 l/m 8.7 km/h (2 Bft) NW 3.7 C 11.7 C
26.10.2002 20:00 11.6 C 59 % 1023.2 hPa 0.0 l/m 15.4 km/h (3 Bft) NW 3.9 C 11.6 C
26.10.2002 21:00 11.1 C 62 % 1023.7 hPa 0.0 l/m 10.6 km/h (2 Bft) NW 4.0 C 11.1 C
26.10.2002 22:00 9.6 C 68 % 1024.2 hPa 0.0 l/m 2.9 km/h (1 Bft) SO 3.9 C 9.4 C
26.10.2002 23:00 8.3 C 73 % 1023.7 hPa 0.0 l/m 3.8 km/h (1 Bft) SO 3.8 C 7.7 C
27.10.2002 00:00 7.4 C 76 % 1023.2 hPa 0.0 l/m 2.1 km/h (1 Bft) SO 3.4 C 7.2 C
27.10.2002 01:00 6.6 C 78 % 1023.2 hPa 0.0 l/m 5.0 km/h (1 Bft) O-SO 3.0 C 5.8 C
27.10.2002 02:00 5.7 C 86 % 1022.0 hPa 0.0 l/m 8.8 km/h (2 Bft) O-SO 3.5 C 3.8 C
27.10.2002 03:00 4.7 C 91 % 1020.6 hPa 0.0 l/m 3.3 km/h (1 Bft) O-SO 3.3 C 4.0 C
27.10.2002 04:00 4.2 C 93 % 1020.0 hPa 0.0 l/m 2.0 km/h (1 Bft) O-SO 3.2 C 3.8 C
27.10.2002 05:00 5.1 C 94 % 1019.0 hPa 0.0 l/m 0.2 km/h (0 Bft) O-SO 4.2 C 5.1 C
27.10.2002 06:00 6.7 C 86 % 1018.1 hPa 0.0 l/m 2.0 km/h (1 Bft) O-SO 4.5 C 6.4 C
27.10.2002 07:00 6.2 C 88 % 1018.0 hPa 0.0 l/m 0.1 km/h (0 Bft) O-NO 4.3 C 6.2 C
27.10.2002 08:00 6.9 C 87 % 1017.0 hPa 0.0 l/m 0.0 km/h (0 Bft) N 4.9 C 6.9 C
27.10.2002 09:00 8.1 C 83 % 1016.8 hPa 0.0 l/m 0.3 km/h (0 Bft) NW 5.3 C 8.1 C
27.10.2002 10:00 10.5 C 73 % 1015.5 hPa 0.0 l/m 0.4 km/h (0 Bft) O 5.8 C 10.5 C
27.10.2002 11:00 12.3 C 65 % 1014.5 hPa 0.0 l/m 0.6 km/h (0 Bft) O-NO 5.8 C 12.3 C
27.10.2002 12:00 19.3 C 42 % 1012.8 hPa 0.0 l/m 25.7 km/h (4 Bft) W-NW 5.9 C 19.3 C
27.10.2002 13:00 20.1 C 40 % 1012.3 hPa 0.0 l/m 37.5 km/h (5 Bft) W-NW 6.1 C 20.1 C
27.10.2002 14:00 18.8 C 52 % 1012.7 hPa 0.0 l/m 41.0 km/h (6 Bft) NW 8.7 C 18.8 C
27.10.2002 15:00 17.8 C 56 % 1014.2 hPa 0.0 l/m 50.3 km/h (7 Bft) W-NW 8.9 C 17.8 C
27.10.2002 16:00 17.1 C 60 % 1014.9 hPa 0.0 l/m 46.7 km/h (6 Bft) W-NW 9.2 C 17.1 C
27.10.2002 17:00 16.6 C 48 % 1016.4 hPa 0.0 l/m 61.7 km/h (7 Bft) W-NW 5.6 C 16.6 C
27.10.2002 18:00 16.0 C 42 % 1018.5 hPa 0.0 l/m 60.9 km/h (7 Bft) NW 2.9 C 16.0 C
27.10.2002 19:00 15.1 C 40 % 1020.7 hPa 0.0 l/m 61.0 km/h (7 Bft) W-NW 1.8 C 15.1 C
27.10.2002 20:00 13.8 C 45 % 1022.8 hPa 0.0 l/m 49.9 km/h (6 Bft) W-NW 1.9 C 13.8 C
27.10.2002 21:00 13.3 C 47 % 1024.2 hPa 0.0 l/m 41.8 km/h (6 Bft) NW 2.3 C 13.3 C
27.10.2002 22:00 12.9 C 44 % 1025.1 hPa 0.0 l/m 46.3 km/h (6 Bft) W-NW 1.0 C 12.9 C
27.10.2002 23:00 12.2 C 45 % 1026.2 hPa 0.0 l/m 46.7 km/h (6 Bft) W-NW 0.6 C 12.2 C
Min-Datum _ 21.10.02 26.10.02 22.10.02 - 21.10.02 - 27.10.02 24.10.02
_ Min-Zeit 04:35 14:43 20:33 - 00:02 - 23:34 05:38
Minimum _ 2.6 C 34 % 998.3 hPa - 0.0 km/h (0 Bft) - -0.8 C 0.7 C
Max-Datum _ 27.10.02 21.10.02 27.10.02 25.10.02 27.10.02 - 25.10.02 27.10.02
_ Max-Zeit 12:27 05:17 23:07 20:00 19:39 - 20:48 12:27
Maximum _ 20.9 C 100 % 1026.3 hPa 3.3 l/m 89.7 km/h
W-NW (10 Bft)
- 12.1 C 20.9 C
Durchschnitt _ 10.4 C 78 % 1010.5 hPa #53.7 l/m 13.4 km/h (3 Bft) NW 6.2 C 10.2 C

Durchschnitt Minimum Temp.9.9 C
Durchschnitt Maximum Temp.11.0 C
© Kaiko 2002